LSZHLSZC

Guest
Details From LSZH - Zurich
To LSZC - Buochs
Flight Number -
Tags Routegen Generated
Created
Modified
Stats Distance 33 nm / 62 km
Max Altitude 100 ft / 30 m
Waypoints 5
Social Downloads 1
Likes 0
Share VATSIM

Download

Looking for another format? Having issues loading an existing format? Contact us
Advertisement - Login to hide

Notes

Departing runway 15 LSZH. Arriving runway 6 LSZC.

Route

LSZH +47.38_+008.60 +47.21_+008.60 +47.04_+008.60 LSZC

ID Type Via Altitude Latitude Longitude Leg Dist Tot Dist Heading (true) Name
O LSZH APT - 0 ft / 0 m 47.44544˚ 8.55673˚ - 0 nm - -
+47.38_+008.60 DME - 100 ft / 30 m 47.37983˚ 8.60188˚ 4 nm 4 nm 155° / 155° -
+47.21_+008.60 DME - 100 ft / 30 m 47.21144˚ 8.60149˚ 10 nm 14 nm 180° / 180° -
+47.04_+008.60 DME - 100 ft / 30 m 47.04305˚ 8.60110˚ 10 nm 24 nm 180° / 180° -
O LSZC APT - 0 ft / 0 m 46.97978˚ 8.41019˚ 8 nm 33 nm 244° / 244° -

Altitude Profile

Advertisement - Login to hide

LSZH

Details ICAO LSZH (ZRH)
Name Zurich
Region Switzerland
Timezone Europe/Zurich (UTC+1.0)
Stats Elevation 1,416 ft / 432 m (AMSL)
Location 47.463489° 8.549964°
Runways 3
Magnetic Variation 2.346° E

METAR

LSZH 151750Z 23006KT 9999 FEW025 BKN063 03/M01 Q1000 NOSIG

Decode

TAF

TAF LSZH 151725Z 1518/1624 21004KT 9999 SCT032 SCT055 TX02/1614Z TNM01/1604Z PROB30 TEMPO 1518/1524 2500 SHSN BKN013 TEMPO 1600/1618 2000 SHSN BKN010 TEMPO 1606/1612 1000 +SHSN BKN006TCU PROB40 TEMPO 1612/1620 28010KT 3000 SHSNRA BKN013 PROB30 TEMPO 1618/1624 2000 SHSN VV006

Decode

Departure Runways

ID Width Length Bearing (true) Bearing (mag) Surface Threshold Offset Overrun Length
10 197 ft / 60 m 8,180 ft / 2,493 m 95.98° 93.63° Concrete 0 ft / 0 m 197 ft / 60 m
14 197 ft / 60 m 10,816 ft / 3,297 m 137.30° 134.95° Concrete 492 ft / 150 m 0 ft / 0 m
16 197 ft / 60 m 12,137 ft / 3,699 m 155.00° 152.65° Concrete 0 ft / 0 m 197 ft / 60 m
28 197 ft / 60 m 8,180 ft / 2,493 m 276.01° 273.66° Concrete 0 ft / 0 m 197 ft / 60 m
32 197 ft / 60 m 10,816 ft / 3,297 m 317.32° 314.97° Concrete 0 ft / 0 m 197 ft / 60 m
34 197 ft / 60 m 12,137 ft / 3,699 m 335.01° 332.66° Concrete 1,542 ft / 470 m 0 ft / 0 m

LSZC

Details ICAO LSZC (BXO)
Name Buochs
Region Switzerland
Timezone Europe/Zurich (UTC+1.0)
Stats Elevation 1,475 ft / 450 m (AMSL)
Location 46.973188° 8.397360°
Runways 2
Magnetic Variation 2.307° E

METAR

LSZC 151750Z AUTO 28004KT 240V310 9999 NCD 02/M01 Q1001

Decode

TAF

Not found

Destination Runways

ID Width Length Bearing (true) Bearing (mag) Surface Threshold Offset Overrun Length
07L 131 ft / 40 m 6,570 ft / 2,002 m 64.09° 61.78° Asphalt 0 ft / 0 m 650 ft / 198 m
07R 131 ft / 40 m 4,827 ft / 1,471 m 64.00° 61.69° Asphalt 0 ft / 0 m 1,161 ft / 354 m
25L 131 ft / 40 m 4,827 ft / 1,471 m 244.02° 241.71° Asphalt 0 ft / 0 m 1,161 ft / 354 m
25R 131 ft / 40 m 6,570 ft / 2,002 m 244.11° 241.80° Asphalt 0 ft / 0 m 650 ft / 198 m

Popular Alternatives